sensor_id;sensor_type;location;lat;lon;timestamp;temperature;humidity
41928;DHT22;27616;51.420;6.788;2023-08-30T00:00:15;14.20;99.90
41928;DHT22;27616;51.420;6.788;2023-08-30T00:02:43;14.20;99.90
41928;DHT22;27616;51.420;6.788;2023-08-30T00:05:09;14.20;99.90
41928;DHT22;27616;51.420;6.788;2023-08-30T00:07:35;14.10;99.90
41928;DHT22;27616;51.420;6.788;2023-08-30T00:10:01;14.00;99.90
41928;DHT22;27616;51.420;6.788;2023-08-30T00:12:27;13.90;99.90
41928;DHT22;27616;51.420;6.788;2023-08-30T00:14:54;13.80;99.90
41928;DHT22;27616;51.420;6.788;2023-08-30T00:17:19;13.70;99.90
41928;DHT22;27616;51.420;6.788;2023-08-30T00:19:46;13.70;99.90
41928;DHT22;27616;51.420;6.788;2023-08-30T00:22:11;13.70;99.90
41928;DHT22;27616;51.420;6.788;2023-08-30T00:24:38;13.70;99.90
41928;DHT22;27616;51.420;6.788;2023-08-30T00:27:04;13.70;99.90
41928;DHT22;27616;51.420;6.788;2023-08-30T00:29:30;13.60;99.90
41928;DHT22;27616;51.420;6.788;2023-08-30T00:31:56;13.50;99.90
41928;DHT22;27616;51.420;6.788;2023-08-30T00:34:21;13.50;99.90
41928;DHT22;27616;51.420;6.788;2023-08-30T00:36:47;13.50;99.90
41928;DHT22;27616;51.420;6.788;2023-08-30T00:39:13;13.40;99.90
41928;DHT22;27616;51.420;6.788;2023-08-30T00:41:39;13.40;99.90
41928;DHT22;27616;51.420;6.788;2023-08-30T00:44:05;13.30;99.90
41928;DHT22;27616;51.420;6.788;2023-08-30T00:46:32;13.30;99.90
41928;DHT22;27616;51.420;6.788;2023-08-30T00:49:02;13.30;99.90
41928;DHT22;27616;51.420;6.788;2023-08-30T00:51:28;13.30;99.90
41928;DHT22;27616;51.420;6.788;2023-08-30T00:53:55;13.30;99.90
41928;DHT22;27616;51.420;6.788;2023-08-30T00:56:21;13.30;99.90
41928;DHT22;27616;51.420;6.788;2023-08-30T00:58:50;13.40;99.90
41928;DHT22;27616;51.420;6.788;2023-08-30T01:01:16;13.30;99.90
41928;DHT22;27616;51.420;6.788;2023-08-30T01:03:42;13.30;99.90
41928;DHT22;27616;51.420;6.788;2023-08-30T01:06:08;13.20;99.90
41928;DHT22;27616;51.420;6.788;2023-08-30T01:08:36;13.10;99.90
41928;DHT22;27616;51.420;6.788;2023-08-30T01:13:55;13.00;99.90
41928;DHT22;27616;51.420;6.788;2023-08-30T01:16:22;13.00;99.90
41928;DHT22;27616;51.420;6.788;2023-08-30T01:18:56;12.90;99.90
41928;DHT22;27616;51.420;6.788;2023-08-30T01:24:44;12.90;99.90
41928;DHT22;27616;51.420;6.788;2023-08-30T01:27:11;12.90;99.90
41928;DHT22;27616;51.420;6.788;2023-08-30T01:29:40;12.80;99.90
41928;DHT22;27616;51.420;6.788;2023-08-30T01:32:09;12.80;99.90
41928;DHT22;27616;51.420;6.788;2023-08-30T01:34:36;12.80;99.90
41928;DHT22;27616;51.420;6.788;2023-08-30T01:37:07;12.70;99.90
41928;DHT22;27616;51.420;6.788;2023-08-30T01:39:40;12.70;99.90
41928;DHT22;27616;51.420;6.788;2023-08-30T01:42:07;12.70;99.90
41928;DHT22;27616;51.420;6.788;2023-08-30T01:44:34;12.70;99.90
41928;DHT22;27616;51.420;6.788;2023-08-30T01:47:00;12.70;99.90
41928;DHT22;27616;51.420;6.788;2023-08-30T01:49:29;12.70;99.90
41928;DHT22;27616;51.420;6.788;2023-08-30T01:51:57;12.70;99.90
41928;DHT22;27616;51.420;6.788;2023-08-30T01:54:24;12.70;99.90
41928;DHT22;27616;51.420;6.788;2023-08-30T01:56:50;12.70;99.90
41928;DHT22;27616;51.420;6.788;2023-08-30T01:59:16;12.80;99.90
41928;DHT22;27616;51.420;6.788;2023-08-30T02:01:42;12.70;99.90
41928;DHT22;27616;51.420;6.788;2023-08-30T02:04:07;12.70;99.90
41928;DHT22;27616;51.420;6.788;2023-08-30T02:06:45;12.80;99.90
41928;DHT22;27616;51.420;6.788;2023-08-30T02:12:01;12.70;99.90
41928;DHT22;27616;51.420;6.788;2023-08-30T02:14:29;12.70;99.90
41928;DHT22;27616;51.420;6.788;2023-08-30T02:16:56;12.80;99.90
41928;DHT22;27616;51.420;6.788;2023-08-30T02:19:22;12.80;99.90
41928;DHT22;27616;51.420;6.788;2023-08-30T02:21:49;12.80;99.90
41928;DHT22;27616;51.420;6.788;2023-08-30T02:24:17;12.80;99.90
41928;DHT22;27616;51.420;6.788;2023-08-30T02:26:43;12.80;99.90
41928;DHT22;27616;51.420;6.788;2023-08-30T02:29:08;12.70;99.90
41928;DHT22;27616;51.420;6.788;2023-08-30T02:31:37;12.70;99.90
41928;DHT22;27616;51.420;6.788;2023-08-30T02:34:02;12.70;99.90
41928;DHT22;27616;51.420;6.788;2023-08-30T02:36:29;12.70;99.90
41928;DHT22;27616;51.420;6.788;2023-08-30T02:38:55;12.60;99.90
41928;DHT22;27616;51.420;6.788;2023-08-30T02:41:21;12.70;99.90
41928;DHT22;27616;51.420;6.788;2023-08-30T02:43:47;12.70;99.90
41928;DHT22;27616;51.420;6.788;2023-08-30T02:46:13;12.70;99.90
41928;DHT22;27616;51.420;6.788;2023-08-30T02:48:38;12.60;99.90
41928;DHT22;27616;51.420;6.788;2023-08-30T02:51:07;12.60;99.90
41928;DHT22;27616;51.420;6.788;2023-08-30T02:53:32;12.60;99.90
41928;DHT22;27616;51.420;6.788;2023-08-30T02:55:58;12.70;99.90
41928;DHT22;27616;51.420;6.788;2023-08-30T02:58:23;12.70;99.90
41928;DHT22;27616;51.420;6.788;2023-08-30T03:00:52;12.70;99.90
41928;DHT22;27616;51.420;6.788;2023-08-30T03:03:18;12.70;99.90
41928;DHT22;27616;51.420;6.788;2023-08-30T03:05:44;12.70;99.90
41928;DHT22;27616;51.420;6.788;2023-08-30T03:08:10;12.60;99.90
41928;DHT22;27616;51.420;6.788;2023-08-30T03:10:35;12.60;99.90
41928;DHT22;27616;51.420;6.788;2023-08-30T03:13:01;12.60;99.90
41928;DHT22;27616;51.420;6.788;2023-08-30T03:15:27;12.50;99.90
41928;DHT22;27616;51.420;6.788;2023-08-30T03:17:52;12.50;99.90
41928;DHT22;27616;51.420;6.788;2023-08-30T03:20:18;12.50;99.90
41928;DHT22;27616;51.420;6.788;2023-08-30T03:22:44;12.50;99.90
41928;DHT22;27616;51.420;6.788;2023-08-30T03:25:10;12.40;99.90
41928;DHT22;27616;51.420;6.788;2023-08-30T03:27:35;12.40;99.90
41928;DHT22;27616;51.420;6.788;2023-08-30T03:30:03;12.40;99.90
41928;DHT22;27616;51.420;6.788;2023-08-30T03:32:31;12.30;99.90
41928;DHT22;27616;51.420;6.788;2023-08-30T03:34:59;12.30;99.90
41928;DHT22;27616;51.420;6.788;2023-08-30T03:37:24;12.30;99.90
41928;DHT22;27616;51.420;6.788;2023-08-30T03:39:50;12.30;99.90
41928;DHT22;27616;51.420;6.788;2023-08-30T03:42:15;12.30;99.90
41928;DHT22;27616;51.420;6.788;2023-08-30T03:44:41;12.30;99.90
41928;DHT22;27616;51.420;6.788;2023-08-30T03:47:06;12.30;99.90
41928;DHT22;27616;51.420;6.788;2023-08-30T03:49:32;12.30;99.90
41928;DHT22;27616;51.420;6.788;2023-08-30T03:51:58;12.30;99.90
41928;DHT22;27616;51.420;6.788;2023-08-30T03:54:24;12.30;99.90
41928;DHT22;27616;51.420;6.788;2023-08-30T03:56:51;12.30;99.90
41928;DHT22;27616;51.420;6.788;2023-08-30T03:59:16;12.30;99.90
41928;DHT22;27616;51.420;6.788;2023-08-30T04:01:43;12.30;99.90
41928;DHT22;27616;51.420;6.788;2023-08-30T04:04:09;12.20;99.90
41928;DHT22;27616;51.420;6.788;2023-08-30T04:06:35;12.20;99.90
41928;DHT22;27616;51.420;6.788;2023-08-30T04:09:01;12.30;99.90
41928;DHT22;27616;51.420;6.788;2023-08-30T04:11:26;12.40;99.90
41928;DHT22;27616;51.420;6.788;2023-08-30T04:13:52;12.30;99.90
41928;DHT22;27616;51.420;6.788;2023-08-30T04:16:18;12.30;99.90
41928;DHT22;27616;51.420;6.788;2023-08-30T04:18:44;12.30;99.90
41928;DHT22;27616;51.420;6.788;2023-08-30T04:21:11;12.30;99.90
41928;DHT22;27616;51.420;6.788;2023-08-30T04:23:37;12.30;99.90
41928;DHT22;27616;51.420;6.788;2023-08-30T04:26:04;12.20;99.90
41928;DHT22;27616;51.420;6.788;2023-08-30T04:28:29;12.20;99.90
41928;DHT22;27616;51.420;6.788;2023-08-30T04:30:56;12.20;99.90
41928;DHT22;27616;51.420;6.788;2023-08-30T04:33:23;12.30;99.90
41928;DHT22;27616;51.420;6.788;2023-08-30T04:35:53;12.30;99.90
41928;DHT22;27616;51.420;6.788;2023-08-30T04:38:20;12.30;99.90
41928;DHT22;27616;51.420;6.788;2023-08-30T04:40:47;12.30;99.90
41928;DHT22;27616;51.420;6.788;2023-08-30T04:43:14;12.40;99.90
41928;DHT22;27616;51.420;6.788;2023-08-30T04:45:40;12.50;99.90
41928;DHT22;27616;51.420;6.788;2023-08-30T04:48:06;12.50;99.90
41928;DHT22;27616;51.420;6.788;2023-08-30T04:50:33;12.60;99.90
41928;DHT22;27616;51.420;6.788;2023-08-30T04:52:59;12.60;99.90
41928;DHT22;27616;51.420;6.788;2023-08-30T04:55:28;12.60;99.90
41928;DHT22;27616;51.420;6.788;2023-08-30T04:57:53;12.70;99.90
41928;DHT22;27616;51.420;6.788;2023-08-30T05:00:19;12.70;99.90
41928;DHT22;27616;51.420;6.788;2023-08-30T05:02:45;12.70;99.90
41928;DHT22;27616;51.420;6.788;2023-08-30T05:05:13;12.70;99.90
41928;DHT22;27616;51.420;6.788;2023-08-30T05:07:39;12.70;99.90
41928;DHT22;27616;51.420;6.788;2023-08-30T05:10:05;12.80;99.90
41928;DHT22;27616;51.420;6.788;2023-08-30T05:12:36;12.80;99.90
41928;DHT22;27616;51.420;6.788;2023-08-30T05:15:02;12.80;99.90
41928;DHT22;27616;51.420;6.788;2023-08-30T05:17:29;12.90;99.90
41928;DHT22;27616;51.420;6.788;2023-08-30T05:19:56;12.90;99.90
41928;DHT22;27616;51.420;6.788;2023-08-30T05:22:22;12.90;99.90
41928;DHT22;27616;51.420;6.788;2023-08-30T05:24:47;12.90;99.90
41928;DHT22;27616;51.420;6.788;2023-08-30T05:27:13;13.00;99.90
41928;DHT22;27616;51.420;6.788;2023-08-30T05:29:40;13.10;99.90
41928;DHT22;27616;51.420;6.788;2023-08-30T05:32:06;13.00;99.90
41928;DHT22;27616;51.420;6.788;2023-08-30T05:34:45;13.00;99.90
41928;DHT22;27616;51.420;6.788;2023-08-30T05:37:29;13.10;99.90
41928;DHT22;27616;51.420;6.788;2023-08-30T05:40:04;13.10;99.90
41928;DHT22;27616;51.420;6.788;2023-08-30T05:42:29;13.20;99.90
41928;DHT22;27616;51.420;6.788;2023-08-30T05:44:55;13.20;99.90
41928;DHT22;27616;51.420;6.788;2023-08-30T05:47:21;13.30;99.90
41928;DHT22;27616;51.420;6.788;2023-08-30T05:49:47;13.30;99.90
41928;DHT22;27616;51.420;6.788;2023-08-30T05:52:15;13.40;99.90
41928;DHT22;27616;51.420;6.788;2023-08-30T05:54:44;13.40;99.90
41928;DHT22;27616;51.420;6.788;2023-08-30T05:57:10;13.40;99.90
41928;DHT22;27616;51.420;6.788;2023-08-30T05:59:36;13.50;99.90
41928;DHT22;27616;51.420;6.788;2023-08-30T06:02:02;13.50;99.90
41928;DHT22;27616;51.420;6.788;2023-08-30T06:04:27;13.60;99.90
41928;DHT22;27616;51.420;6.788;2023-08-30T06:06:53;13.70;99.90
41928;DHT22;27616;51.420;6.788;2023-08-30T06:09:19;13.70;99.90
41928;DHT22;27616;51.420;6.788;2023-08-30T06:11:44;13.80;99.90
41928;DHT22;27616;51.420;6.788;2023-08-30T06:14:10;13.80;99.90
41928;DHT22;27616;51.420;6.788;2023-08-30T06:16:35;13.90;99.90
41928;DHT22;27616;51.420;6.788;2023-08-30T06:19:01;14.00;99.90
41928;DHT22;27616;51.420;6.788;2023-08-30T06:21:27;14.00;99.90
41928;DHT22;27616;51.420;6.788;2023-08-30T06:23:53;14.20;99.90
41928;DHT22;27616;51.420;6.788;2023-08-30T06:26:18;14.30;99.90
41928;DHT22;27616;51.420;6.788;2023-08-30T06:28:44;14.40;99.90
41928;DHT22;27616;51.420;6.788;2023-08-30T06:31:10;14.40;99.90
41928;DHT22;27616;51.420;6.788;2023-08-30T06:33:36;14.50;99.90
41928;DHT22;27616;51.420;6.788;2023-08-30T06:36:03;14.60;99.90
41928;DHT22;27616;51.420;6.788;2023-08-30T06:38:29;14.70;99.90
41928;DHT22;27616;51.420;6.788;2023-08-30T06:40:57;14.80;99.90
41928;DHT22;27616;51.420;6.788;2023-08-30T06:43:23;14.90;99.90
41928;DHT22;27616;51.420;6.788;2023-08-30T06:45:49;14.90;99.90
41928;DHT22;27616;51.420;6.788;2023-08-30T06:48:14;15.10;99.90
41928;DHT22;27616;51.420;6.788;2023-08-30T06:50:40;15.10;99.90
41928;DHT22;27616;51.420;6.788;2023-08-30T06:53:05;15.20;99.90
41928;DHT22;27616;51.420;6.788;2023-08-30T06:55:31;15.30;99.90
41928;DHT22;27616;51.420;6.788;2023-08-30T06:58:01;15.40;99.90
41928;DHT22;27616;51.420;6.788;2023-08-30T07:00:27;15.50;99.90
41928;DHT22;27616;51.420;6.788;2023-08-30T07:02:52;15.60;99.90
41928;DHT22;27616;51.420;6.788;2023-08-30T07:05:18;15.70;99.90
41928;DHT22;27616;51.420;6.788;2023-08-30T07:07:43;15.70;99.90
41928;DHT22;27616;51.420;6.788;2023-08-30T07:10:09;15.70;99.90
41928;DHT22;27616;51.420;6.788;2023-08-30T07:12:35;15.70;99.90
41928;DHT22;27616;51.420;6.788;2023-08-30T07:15:01;15.80;99.90
41928;DHT22;27616;51.420;6.788;2023-08-30T07:17:28;15.80;99.90
41928;DHT22;27616;51.420;6.788;2023-08-30T07:19:54;15.90;99.90
41928;DHT22;27616;51.420;6.788;2023-08-30T07:22:19;16.00;99.90
41928;DHT22;27616;51.420;6.788;2023-08-30T07:24:45;16.10;99.90
41928;DHT22;27616;51.420;6.788;2023-08-30T07:27:11;16.20;99.90
41928;DHT22;27616;51.420;6.788;2023-08-30T07:29:40;16.30;99.90
41928;DHT22;27616;51.420;6.788;2023-08-30T07:32:09;16.30;99.90
41928;DHT22;27616;51.420;6.788;2023-08-30T07:34:35;16.40;99.90
41928;DHT22;27616;51.420;6.788;2023-08-30T07:37:01;16.60;99.90
41928;DHT22;27616;51.420;6.788;2023-08-30T07:39:27;16.70;99.90
41928;DHT22;27616;51.420;6.788;2023-08-30T07:41:53;16.80;99.90
41928;DHT22;27616;51.420;6.788;2023-08-30T07:44:18;16.90;99.90
41928;DHT22;27616;51.420;6.788;2023-08-30T07:46:45;17.10;99.90
41928;DHT22;27616;51.420;6.788;2023-08-30T07:49:11;17.20;99.90
41928;DHT22;27616;51.420;6.788;2023-08-30T07:51:37;17.30;99.90
41928;DHT22;27616;51.420;6.788;2023-08-30T07:54:03;17.40;99.90
41928;DHT22;27616;51.420;6.788;2023-08-30T07:56:28;17.40;99.90
41928;DHT22;27616;51.420;6.788;2023-08-30T07:58:54;17.40;99.90
41928;DHT22;27616;51.420;6.788;2023-08-30T08:01:20;17.50;99.90
41928;DHT22;27616;51.420;6.788;2023-08-30T08:03:54;17.60;99.90
41928;DHT22;27616;51.420;6.788;2023-08-30T08:06:22;17.70;99.90
41928;DHT22;27616;51.420;6.788;2023-08-30T08:08:48;17.90;99.90
41928;DHT22;27616;51.420;6.788;2023-08-30T08:11:13;17.90;99.90
41928;DHT22;27616;51.420;6.788;2023-08-30T08:13:39;18.00;99.90
41928;DHT22;27616;51.420;6.788;2023-08-30T08:16:04;18.00;99.90
41928;DHT22;27616;51.420;6.788;2023-08-30T08:18:30;18.10;99.90
41928;DHT22;27616;51.420;6.788;2023-08-30T08:20:55;18.10;99.90
41928;DHT22;27616;51.420;6.788;2023-08-30T08:23:21;18.10;99.90
41928;DHT22;27616;51.420;6.788;2023-08-30T08:25:47;18.30;99.90
41928;DHT22;27616;51.420;6.788;2023-08-30T08:28:12;18.30;99.90
41928;DHT22;27616;51.420;6.788;2023-08-30T08:30:38;18.40;99.90
41928;DHT22;27616;51.420;6.788;2023-08-30T08:33:04;18.40;99.90
41928;DHT22;27616;51.420;6.788;2023-08-30T08:35:29;18.50;99.90
41928;DHT22;27616;51.420;6.788;2023-08-30T08:37:55;18.60;99.90
41928;DHT22;27616;51.420;6.788;2023-08-30T08:40:20;18.70;99.90
41928;DHT22;27616;51.420;6.788;2023-08-30T08:42:49;18.80;99.90
41928;DHT22;27616;51.420;6.788;2023-08-30T08:45:16;18.90;99.90
41928;DHT22;27616;51.420;6.788;2023-08-30T08:47:43;19.00;99.90
41928;DHT22;27616;51.420;6.788;2023-08-30T08:50:10;19.00;99.90
41928;DHT22;27616;51.420;6.788;2023-08-30T08:52:36;19.00;99.90
41928;DHT22;27616;51.420;6.788;2023-08-30T08:55:02;19.10;99.90
41928;DHT22;27616;51.420;6.788;2023-08-30T08:57:31;19.20;99.90
41928;DHT22;27616;51.420;6.788;2023-08-30T08:59:59;19.10;99.90
41928;DHT22;27616;51.420;6.788;2023-08-30T09:02:25;19.00;99.90
41928;DHT22;27616;51.420;6.788;2023-08-30T09:04:52;18.90;99.90
41928;DHT22;27616;51.420;6.788;2023-08-30T09:07:18;18.80;99.90
41928;DHT22;27616;51.420;6.788;2023-08-30T09:09:45;18.60;99.90
41928;DHT22;27616;51.420;6.788;2023-08-30T09:12:11;18.40;99.90
41928;DHT22;27616;51.420;6.788;2023-08-30T09:14:36;18.30;99.90
41928;DHT22;27616;51.420;6.788;2023-08-30T09:17:02;18.20;99.90
41928;DHT22;27616;51.420;6.788;2023-08-30T09:19:29;18.20;99.90
41928;DHT22;27616;51.420;6.788;2023-08-30T09:21:56;18.20;99.90
41928;DHT22;27616;51.420;6.788;2023-08-30T09:24:22;18.10;99.90
41928;DHT22;27616;51.420;6.788;2023-08-30T09:26:49;17.90;99.90
41928;DHT22;27616;51.420;6.788;2023-08-30T09:29:17;17.60;99.90
41928;DHT22;27616;51.420;6.788;2023-08-30T09:31:43;17.30;99.90
41928;DHT22;27616;51.420;6.788;2023-08-30T09:34:09;17.20;99.90
41928;DHT22;27616;51.420;6.788;2023-08-30T09:36:40;17.10;99.90
41928;DHT22;27616;51.420;6.788;2023-08-30T09:39:11;16.80;99.90
41928;DHT22;27616;51.420;6.788;2023-08-30T09:41:40;16.70;99.90
41928;DHT22;27616;51.420;6.788;2023-08-30T09:44:10;16.60;99.90
41928;DHT22;27616;51.420;6.788;2023-08-30T09:46:48;16.50;99.90
41928;DHT22;27616;51.420;6.788;2023-08-30T09:49:14;16.40;99.90
41928;DHT22;27616;51.420;6.788;2023-08-30T09:51:41;16.30;99.90
41928;DHT22;27616;51.420;6.788;2023-08-30T09:54:15;16.20;99.90
41928;DHT22;27616;51.420;6.788;2023-08-30T09:56:42;16.10;99.90
41928;DHT22;27616;51.420;6.788;2023-08-30T09:59:10;16.00;99.90
41928;DHT22;27616;51.420;6.788;2023-08-30T10:01:37;16.00;99.90
41928;DHT22;27616;51.420;6.788;2023-08-30T10:04:04;15.90;99.90
41928;DHT22;27616;51.420;6.788;2023-08-30T10:06:32;15.80;99.90
41928;DHT22;27616;51.420;6.788;2023-08-30T10:08:59;15.80;99.90
41928;DHT22;27616;51.420;6.788;2023-08-30T10:11:26;15.70;99.90
41928;DHT22;27616;51.420;6.788;2023-08-30T10:13:52;15.70;99.90
41928;DHT22;27616;51.420;6.788;2023-08-30T10:16:24;15.70;99.90
41928;DHT22;27616;51.420;6.788;2023-08-30T10:18:55;15.70;99.90
41928;DHT22;27616;51.420;6.788;2023-08-30T10:21:26;15.70;99.90
41928;DHT22;27616;51.420;6.788;2023-08-30T10:23:54;15.70;99.90
41928;DHT22;27616;51.420;6.788;2023-08-30T10:26:23;15.70;99.90
41928;DHT22;27616;51.420;6.788;2023-08-30T10:28:52;15.70;99.90
41928;DHT22;27616;51.420;6.788;2023-08-30T10:31:18;15.60;99.90
41928;DHT22;27616;51.420;6.788;2023-08-30T10:33:52;15.70;99.90
41928;DHT22;27616;51.420;6.788;2023-08-30T10:36:25;15.70;99.90
41928;DHT22;27616;51.420;6.788;2023-08-30T10:38:54;15.70;99.90
41928;DHT22;27616;51.420;6.788;2023-08-30T10:41:21;15.70;99.90
41928;DHT22;27616;51.420;6.788;2023-08-30T10:43:54;15.70;99.90
41928;DHT22;27616;51.420;6.788;2023-08-30T10:46:34;15.70;99.90
41928;DHT22;27616;51.420;6.788;2023-08-30T10:49:14;15.60;99.90
41928;DHT22;27616;51.420;6.788;2023-08-30T10:51:40;15.60;99.90
41928;DHT22;27616;51.420;6.788;2023-08-30T10:54:24;15.60;99.90
41928;DHT22;27616;51.420;6.788;2023-08-30T10:56:57;15.40;99.90
41928;DHT22;27616;51.420;6.788;2023-08-30T10:59:27;15.30;99.90
41928;DHT22;27616;51.420;6.788;2023-08-30T11:01:55;15.30;99.90
41928;DHT22;27616;51.420;6.788;2023-08-30T11:04:21;15.30;99.90
41928;DHT22;27616;51.420;6.788;2023-08-30T11:06:49;15.20;99.90
41928;DHT22;27616;51.420;6.788;2023-08-30T11:09:17;15.20;99.90
41928;DHT22;27616;51.420;6.788;2023-08-30T11:11:50;15.20;99.90
41928;DHT22;27616;51.420;6.788;2023-08-30T11:14:16;15.30;99.90
41928;DHT22;27616;51.420;6.788;2023-08-30T11:16:42;15.20;99.90
41928;DHT22;27616;51.420;6.788;2023-08-30T11:19:09;15.20;99.90
41928;DHT22;27616;51.420;6.788;2023-08-30T11:21:40;15.30;99.90
41928;DHT22;27616;51.420;6.788;2023-08-30T11:24:07;15.20;99.90
41928;DHT22;27616;51.420;6.788;2023-08-30T11:26:33;15.30;99.90
41928;DHT22;27616;51.420;6.788;2023-08-30T11:29:08;15.30;99.90
41928;DHT22;27616;51.420;6.788;2023-08-30T11:31:35;15.30;99.90
41928;DHT22;27616;51.420;6.788;2023-08-30T11:34:01;15.30;99.90
41928;DHT22;27616;51.420;6.788;2023-08-30T11:36:31;15.20;99.90
41928;DHT22;27616;51.420;6.788;2023-08-30T11:38:57;15.20;99.90
41928;DHT22;27616;51.420;6.788;2023-08-30T11:41:24;15.20;99.90
41928;DHT22;27616;51.420;6.788;2023-08-30T11:43:51;15.20;99.90
41928;DHT22;27616;51.420;6.788;2023-08-30T11:46:18;15.30;99.90
41928;DHT22;27616;51.420;6.788;2023-08-30T11:48:45;15.20;99.90
41928;DHT22;27616;51.420;6.788;2023-08-30T11:51:11;15.30;99.90
41928;DHT22;27616;51.420;6.788;2023-08-30T11:53:37;15.20;99.90
41928;DHT22;27616;51.420;6.788;2023-08-30T11:56:07;15.20;99.90
41928;DHT22;27616;51.420;6.788;2023-08-30T11:58:34;15.20;99.90
41928;DHT22;27616;51.420;6.788;2023-08-30T12:01:01;15.30;99.90
41928;DHT22;27616;51.420;6.788;2023-08-30T12:03:27;15.30;99.90
41928;DHT22;27616;51.420;6.788;2023-08-30T12:05:54;15.40;99.90
41928;DHT22;27616;51.420;6.788;2023-08-30T12:08:28;15.40;99.90
41928;DHT22;27616;51.420;6.788;2023-08-30T12:10:55;15.40;99.90
41928;DHT22;27616;51.420;6.788;2023-08-30T12:13:33;15.50;99.90
41928;DHT22;27616;51.420;6.788;2023-08-30T12:16:00;15.60;99.90
41928;DHT22;27616;51.420;6.788;2023-08-30T12:18:27;15.60;99.90
41928;DHT22;27616;51.420;6.788;2023-08-30T12:20:54;15.70;99.90
41928;DHT22;27616;51.420;6.788;2023-08-30T12:23:21;15.70;99.90
41928;DHT22;27616;51.420;6.788;2023-08-30T12:25:57;15.70;99.90
41928;DHT22;27616;51.420;6.788;2023-08-30T12:28:23;15.60;99.90
41928;DHT22;27616;51.420;6.788;2023-08-30T12:30:48;15.60;99.90
41928;DHT22;27616;51.420;6.788;2023-08-30T12:33:16;15.60;99.90
41928;DHT22;27616;51.420;6.788;2023-08-30T12:35:42;15.60;99.90
41928;DHT22;27616;51.420;6.788;2023-08-30T12:38:07;15.60;99.90
41928;DHT22;27616;51.420;6.788;2023-08-30T12:40:35;15.60;99.90
41928;DHT22;27616;51.420;6.788;2023-08-30T12:43:01;15.60;99.90
41928;DHT22;27616;51.420;6.788;2023-08-30T12:45:26;15.60;99.90
41928;DHT22;27616;51.420;6.788;2023-08-30T12:47:52;15.60;99.90
41928;DHT22;27616;51.420;6.788;2023-08-30T12:50:18;15.60;99.90
41928;DHT22;27616;51.420;6.788;2023-08-30T12:52:43;15.60;99.90
41928;DHT22;27616;51.420;6.788;2023-08-30T12:55:09;15.50;99.90
41928;DHT22;27616;51.420;6.788;2023-08-30T12:57:34;15.50;99.90
41928;DHT22;27616;51.420;6.788;2023-08-30T13:00:00;15.50;99.90
41928;DHT22;27616;51.420;6.788;2023-08-30T13:02:25;15.50;99.90
41928;DHT22;27616;51.420;6.788;2023-08-30T13:04:51;15.50;99.90
41928;DHT22;27616;51.420;6.788;2023-08-30T13:07:17;15.50;99.90
41928;DHT22;27616;51.420;6.788;2023-08-30T13:09:42;15.50;99.90
41928;DHT22;27616;51.420;6.788;2023-08-30T13:12:08;15.50;99.90
41928;DHT22;27616;51.420;6.788;2023-08-30T13:14:33;15.50;99.90
41928;DHT22;27616;51.420;6.788;2023-08-30T13:16:59;15.50;99.90
41928;DHT22;27616;51.420;6.788;2023-08-30T13:19:25;15.50;99.90
41928;DHT22;27616;51.420;6.788;2023-08-30T13:21:50;15.40;99.90
41928;DHT22;27616;51.420;6.788;2023-08-30T13:24:16;15.40;99.90
41928;DHT22;27616;51.420;6.788;2023-08-30T13:26:42;15.40;99.90
41928;DHT22;27616;51.420;6.788;2023-08-30T13:29:07;15.30;99.90
41928;DHT22;27616;51.420;6.788;2023-08-30T13:31:33;15.30;99.90
41928;DHT22;27616;51.420;6.788;2023-08-30T13:33:58;15.50;99.90
41928;DHT22;27616;51.420;6.788;2023-08-30T13:36:24;15.50;99.90
41928;DHT22;27616;51.420;6.788;2023-08-30T13:38:50;15.50;99.90
41928;DHT22;27616;51.420;6.788;2023-08-30T13:41:16;15.50;99.90
41928;DHT22;27616;51.420;6.788;2023-08-30T13:43:42;15.50;99.90
41928;DHT22;27616;51.420;6.788;2023-08-30T13:46:07;15.50;99.90
41928;DHT22;27616;51.420;6.788;2023-08-30T13:48:33;15.50;99.90
41928;DHT22;27616;51.420;6.788;2023-08-30T13:50:58;15.50;99.90
41928;DHT22;27616;51.420;6.788;2023-08-30T13:53:24;15.50;99.90
41928;DHT22;27616;51.420;6.788;2023-08-30T13:55:51;15.50;99.90
41928;DHT22;27616;51.420;6.788;2023-08-30T13:58:16;15.50;99.90
41928;DHT22;27616;51.420;6.788;2023-08-30T14:00:44;15.50;99.90
41928;DHT22;27616;51.420;6.788;2023-08-30T14:03:10;15.50;99.90
41928;DHT22;27616;51.420;6.788;2023-08-30T14:05:35;15.40;99.90
41928;DHT22;27616;51.420;6.788;2023-08-30T14:08:01;15.40;99.90
41928;DHT22;27616;51.420;6.788;2023-08-30T14:10:27;15.30;99.90
41928;DHT22;27616;51.420;6.788;2023-08-30T14:12:53;15.20;99.90
41928;DHT22;27616;51.420;6.788;2023-08-30T14:15:20;15.20;99.90
41928;DHT22;27616;51.420;6.788;2023-08-30T14:17:45;15.20;99.90
41928;DHT22;27616;51.420;6.788;2023-08-30T14:20:11;15.10;99.90
41928;DHT22;27616;51.420;6.788;2023-08-30T14:22:37;15.10;99.90
41928;DHT22;27616;51.420;6.788;2023-08-30T14:25:03;15.10;99.90
41928;DHT22;27616;51.420;6.788;2023-08-30T14:27:30;15.10;99.90
41928;DHT22;27616;51.420;6.788;2023-08-30T14:29:55;15.10;99.90
41928;DHT22;27616;51.420;6.788;2023-08-30T14:32:21;15.10;99.90
41928;DHT22;27616;51.420;6.788;2023-08-30T14:34:47;15.20;99.90
41928;DHT22;27616;51.420;6.788;2023-08-30T14:37:12;15.20;99.90
41928;DHT22;27616;51.420;6.788;2023-08-30T14:39:38;15.30;99.90
41928;DHT22;27616;51.420;6.788;2023-08-30T14:42:04;15.30;99.90
41928;DHT22;27616;51.420;6.788;2023-08-30T14:44:29;15.30;99.90
41928;DHT22;27616;51.420;6.788;2023-08-30T14:46:55;15.30;99.90
41928;DHT22;27616;51.420;6.788;2023-08-30T14:49:20;15.30;99.90
41928;DHT22;27616;51.420;6.788;2023-08-30T14:51:46;15.20;99.90
41928;DHT22;27616;51.420;6.788;2023-08-30T14:54:12;15.20;99.90
41928;DHT22;27616;51.420;6.788;2023-08-30T14:56:37;15.20;99.90
41928;DHT22;27616;51.420;6.788;2023-08-30T14:59:03;15.20;99.90
41928;DHT22;27616;51.420;6.788;2023-08-30T15:01:28;15.10;99.90
41928;DHT22;27616;51.420;6.788;2023-08-30T15:03:54;15.10;99.90
41928;DHT22;27616;51.420;6.788;2023-08-30T15:06:20;15.10;99.90
41928;DHT22;27616;51.420;6.788;2023-08-30T15:08:47;15.20;99.90
41928;DHT22;27616;51.420;6.788;2023-08-30T15:11:13;15.20;99.90
41928;DHT22;27616;51.420;6.788;2023-08-30T15:13:39;15.10;99.90
41928;DHT22;27616;51.420;6.788;2023-08-30T15:16:04;15.10;99.90
41928;DHT22;27616;51.420;6.788;2023-08-30T15:18:30;15.10;99.90
41928;DHT22;27616;51.420;6.788;2023-08-30T15:20:56;15.10;99.90
41928;DHT22;27616;51.420;6.788;2023-08-30T15:23:22;15.10;99.90
41928;DHT22;27616;51.420;6.788;2023-08-30T15:25:48;15.20;99.90
41928;DHT22;27616;51.420;6.788;2023-08-30T15:28:15;15.20;99.90
41928;DHT22;27616;51.420;6.788;2023-08-30T15:30:44;15.30;99.90
41928;DHT22;27616;51.420;6.788;2023-08-30T15:33:10;15.30;99.90
41928;DHT22;27616;51.420;6.788;2023-08-30T15:35:37;15.40;99.90